sensor_id;sensor_type;location;lat;lon;timestamp;temperature;humidity
35690;DHT22;26977;44.830;-0.674;2022-07-30T00:02:21;17.30;99.90
35690;DHT22;26977;44.830;-0.674;2022-07-30T00:04:47;17.30;99.90
35690;DHT22;26977;44.830;-0.674;2022-07-30T00:07:13;17.30;99.90
35690;DHT22;26977;44.830;-0.674;2022-07-30T00:09:38;17.20;99.90
35690;DHT22;26977;44.830;-0.674;2022-07-30T00:12:05;17.30;99.90
35690;DHT22;26977;44.830;-0.674;2022-07-30T00:14:31;17.20;99.90
35690;DHT22;26977;44.830;-0.674;2022-07-30T00:16:57;17.20;99.90
35690;DHT22;26977;44.830;-0.674;2022-07-30T00:19:22;17.20;99.90
35690;DHT22;26977;44.830;-0.674;2022-07-30T00:21:48;17.20;99.90
35690;DHT22;26977;44.830;-0.674;2022-07-30T00:24:14;17.10;99.90
35690;DHT22;26977;44.830;-0.674;2022-07-30T00:26:39;17.00;99.90
35690;DHT22;26977;44.830;-0.674;2022-07-30T00:29:05;17.10;99.90
35690;DHT22;26977;44.830;-0.674;2022-07-30T00:31:32;17.10;99.90
35690;DHT22;26977;44.830;-0.674;2022-07-30T00:33:57;17.20;99.90
35690;DHT22;26977;44.830;-0.674;2022-07-30T00:36:23;17.20;99.90
35690;DHT22;26977;44.830;-0.674;2022-07-30T00:38:49;17.20;99.90
35690;DHT22;26977;44.830;-0.674;2022-07-30T00:41:16;17.20;99.90
35690;DHT22;26977;44.830;-0.674;2022-07-30T00:43:42;17.10;99.90
35690;DHT22;26977;44.830;-0.674;2022-07-30T00:46:08;17.00;99.90
35690;DHT22;26977;44.830;-0.674;2022-07-30T00:48:33;17.00;99.90
35690;DHT22;26977;44.830;-0.674;2022-07-30T00:50:59;17.00;99.90
35690;DHT22;26977;44.830;-0.674;2022-07-30T00:53:25;17.00;99.90
35690;DHT22;26977;44.830;-0.674;2022-07-30T00:55:50;17.00;99.90
35690;DHT22;26977;44.830;-0.674;2022-07-30T00:58:17;16.90;99.90
35690;DHT22;26977;44.830;-0.674;2022-07-30T01:00:43;16.90;99.90
35690;DHT22;26977;44.830;-0.674;2022-07-30T01:03:09;16.90;99.90
35690;DHT22;26977;44.830;-0.674;2022-07-30T01:05:34;16.80;99.90
35690;DHT22;26977;44.830;-0.674;2022-07-30T01:08:00;16.80;99.90
35690;DHT22;26977;44.830;-0.674;2022-07-30T01:10:26;16.80;99.90
35690;DHT22;26977;44.830;-0.674;2022-07-30T01:12:52;16.80;99.90
35690;DHT22;26977;44.830;-0.674;2022-07-30T01:15:19;16.70;99.90
35690;DHT22;26977;44.830;-0.674;2022-07-30T01:17:47;16.60;99.90
35690;DHT22;26977;44.830;-0.674;2022-07-30T01:20:22;16.50;99.90
35690;DHT22;26977;44.830;-0.674;2022-07-30T01:26:11;16.50;99.90
35690;DHT22;26977;44.830;-0.674;2022-07-30T01:28:42;16.40;99.90
35690;DHT22;26977;44.830;-0.674;2022-07-30T01:31:09;16.30;99.90
35690;DHT22;26977;44.830;-0.674;2022-07-30T01:33:41;16.20;99.90
35690;DHT22;26977;44.830;-0.674;2022-07-30T01:36:09;16.10;99.90
35690;DHT22;26977;44.830;-0.674;2022-07-30T01:38:36;16.10;99.90
35690;DHT22;26977;44.830;-0.674;2022-07-30T01:41:04;16.10;99.90
35690;DHT22;26977;44.830;-0.674;2022-07-30T01:43:33;16.10;99.90
35690;DHT22;26977;44.830;-0.674;2022-07-30T01:46:01;16.20;99.90
35690;DHT22;26977;44.830;-0.674;2022-07-30T01:48:27;16.40;99.90
35690;DHT22;26977;44.830;-0.674;2022-07-30T01:50:55;16.60;99.90
35690;DHT22;26977;44.830;-0.674;2022-07-30T01:53:24;16.50;99.90
35690;DHT22;26977;44.830;-0.674;2022-07-30T01:55:53;16.40;99.90
35690;DHT22;26977;44.830;-0.674;2022-07-30T01:58:22;16.40;99.90
35690;DHT22;26977;44.830;-0.674;2022-07-30T02:00:49;16.40;99.90
35690;DHT22;26977;44.830;-0.674;2022-07-30T02:03:16;16.40;99.90
35690;DHT22;26977;44.830;-0.674;2022-07-30T02:05:48;16.40;99.90
35690;DHT22;26977;44.830;-0.674;2022-07-30T02:10:53;16.20;99.90
35690;DHT22;26977;44.830;-0.674;2022-07-30T02:13:26;16.10;99.90
35690;DHT22;26977;44.830;-0.674;2022-07-30T02:16:05;16.00;99.90
35690;DHT22;26977;44.830;-0.674;2022-07-30T02:18:47;16.00;99.90
35690;DHT22;26977;44.830;-0.674;2022-07-30T02:21:17;16.00;99.90
35690;DHT22;26977;44.830;-0.674;2022-07-30T02:23:44;16.00;99.90
35690;DHT22;26977;44.830;-0.674;2022-07-30T02:26:16;16.00;99.90
35690;DHT22;26977;44.830;-0.674;2022-07-30T02:28:46;15.90;99.90
35690;DHT22;26977;44.830;-0.674;2022-07-30T02:31:15;15.80;99.90
35690;DHT22;26977;44.830;-0.674;2022-07-30T02:33:43;15.80;99.90
35690;DHT22;26977;44.830;-0.674;2022-07-30T02:36:10;15.80;99.90
35690;DHT22;26977;44.830;-0.674;2022-07-30T02:38:38;15.80;99.90
35690;DHT22;26977;44.830;-0.674;2022-07-30T02:41:07;15.70;99.90
35690;DHT22;26977;44.830;-0.674;2022-07-30T02:43:36;15.80;99.90
35690;DHT22;26977;44.830;-0.674;2022-07-30T02:46:05;15.80;99.90
35690;DHT22;26977;44.830;-0.674;2022-07-30T02:48:32;16.00;99.90
35690;DHT22;26977;44.830;-0.674;2022-07-30T02:50:59;16.10;99.90
35690;DHT22;26977;44.830;-0.674;2022-07-30T02:53:28;16.10;99.90
35690;DHT22;26977;44.830;-0.674;2022-07-30T02:55:55;16.00;99.90
35690;DHT22;26977;44.830;-0.674;2022-07-30T02:58:23;15.80;99.90
35690;DHT22;26977;44.830;-0.674;2022-07-30T03:00:51;16.00;99.90
35690;DHT22;26977;44.830;-0.674;2022-07-30T03:03:19;16.00;99.90
35690;DHT22;26977;44.830;-0.674;2022-07-30T03:05:49;16.00;99.90
35690;DHT22;26977;44.830;-0.674;2022-07-30T03:08:15;16.10;99.90
35690;DHT22;26977;44.830;-0.674;2022-07-30T03:10:42;16.10;99.90
35690;DHT22;26977;44.830;-0.674;2022-07-30T03:13:10;16.10;99.90
35690;DHT22;26977;44.830;-0.674;2022-07-30T03:15:42;16.10;99.90
35690;DHT22;26977;44.830;-0.674;2022-07-30T03:18:12;16.10;99.90
35690;DHT22;26977;44.830;-0.674;2022-07-30T03:20:39;16.10;99.90
35690;DHT22;26977;44.830;-0.674;2022-07-30T03:23:06;16.10;99.90
35690;DHT22;26977;44.830;-0.674;2022-07-30T03:25:32;16.10;99.90
35690;DHT22;26977;44.830;-0.674;2022-07-30T03:28:01;16.10;99.90
35690;DHT22;26977;44.830;-0.674;2022-07-30T03:30:28;16.10;99.90
35690;DHT22;26977;44.830;-0.674;2022-07-30T03:32:55;16.00;99.90
35690;DHT22;26977;44.830;-0.674;2022-07-30T03:35:21;15.90;99.90
35690;DHT22;26977;44.830;-0.674;2022-07-30T03:37:49;15.80;99.90
35690;DHT22;26977;44.830;-0.674;2022-07-30T03:40:16;15.80;99.90
35690;DHT22;26977;44.830;-0.674;2022-07-30T03:42:43;15.70;99.90
35690;DHT22;26977;44.830;-0.674;2022-07-30T03:45:10;15.60;99.90
35690;DHT22;26977;44.830;-0.674;2022-07-30T03:47:38;15.60;99.90
35690;DHT22;26977;44.830;-0.674;2022-07-30T03:50:05;15.60;99.90
35690;DHT22;26977;44.830;-0.674;2022-07-30T03:52:37;15.80;99.90
35690;DHT22;26977;44.830;-0.674;2022-07-30T03:55:06;15.90;99.90
35690;DHT22;26977;44.830;-0.674;2022-07-30T03:57:32;15.80;99.90
35690;DHT22;26977;44.830;-0.674;2022-07-30T03:59:58;15.70;99.90
35690;DHT22;26977;44.830;-0.674;2022-07-30T04:02:24;15.70;99.90
35690;DHT22;26977;44.830;-0.674;2022-07-30T04:04:49;15.70;99.90
35690;DHT22;26977;44.830;-0.674;2022-07-30T04:07:15;15.70;99.90
35690;DHT22;26977;44.830;-0.674;2022-07-30T04:09:41;15.60;99.90
35690;DHT22;26977;44.830;-0.674;2022-07-30T04:12:07;15.50;99.90
35690;DHT22;26977;44.830;-0.674;2022-07-30T04:14:41;15.60;99.90
35690;DHT22;26977;44.830;-0.674;2022-07-30T04:17:16;15.60;99.90
35690;DHT22;26977;44.830;-0.674;2022-07-30T04:19:48;15.70;99.90
35690;DHT22;26977;44.830;-0.674;2022-07-30T04:22:20;15.70;99.90
35690;DHT22;26977;44.830;-0.674;2022-07-30T04:24:48;15.70;99.90
35690;DHT22;26977;44.830;-0.674;2022-07-30T04:27:17;15.70;99.90
35690;DHT22;26977;44.830;-0.674;2022-07-30T04:29:43;15.80;99.90
35690;DHT22;26977;44.830;-0.674;2022-07-30T04:32:09;15.70;99.90
35690;DHT22;26977;44.830;-0.674;2022-07-30T04:34:35;15.60;99.90
35690;DHT22;26977;44.830;-0.674;2022-07-30T04:37:01;15.60;99.90
35690;DHT22;26977;44.830;-0.674;2022-07-30T04:39:27;15.50;99.90
35690;DHT22;26977;44.830;-0.674;2022-07-30T04:41:52;15.80;99.90
35690;DHT22;26977;44.830;-0.674;2022-07-30T04:44:18;15.80;99.90
35690;DHT22;26977;44.830;-0.674;2022-07-30T04:46:45;15.90;99.90
35690;DHT22;26977;44.830;-0.674;2022-07-30T04:49:11;15.90;99.90
35690;DHT22;26977;44.830;-0.674;2022-07-30T04:51:38;15.80;99.90
35690;DHT22;26977;44.830;-0.674;2022-07-30T04:54:07;15.90;99.90
35690;DHT22;26977;44.830;-0.674;2022-07-30T04:56:34;15.90;99.90
35690;DHT22;26977;44.830;-0.674;2022-07-30T04:59:00;15.90;99.90
35690;DHT22;26977;44.830;-0.674;2022-07-30T05:01:33;15.90;99.90
35690;DHT22;26977;44.830;-0.674;2022-07-30T05:04:00;15.90;99.90
35690;DHT22;26977;44.830;-0.674;2022-07-30T05:06:27;15.90;99.90
35690;DHT22;26977;44.830;-0.674;2022-07-30T05:08:53;15.90;99.90
35690;DHT22;26977;44.830;-0.674;2022-07-30T05:11:19;15.90;99.90
35690;DHT22;26977;44.830;-0.674;2022-07-30T05:13:46;15.80;99.90
35690;DHT22;26977;44.830;-0.674;2022-07-30T05:16:16;15.90;99.90
35690;DHT22;26977;44.830;-0.674;2022-07-30T05:18:41;15.90;99.90
35690;DHT22;26977;44.830;-0.674;2022-07-30T05:21:08;15.90;99.90
35690;DHT22;26977;44.830;-0.674;2022-07-30T05:23:34;16.00;99.90
35690;DHT22;26977;44.830;-0.674;2022-07-30T05:26:00;16.10;99.90
35690;DHT22;26977;44.830;-0.674;2022-07-30T05:28:25;16.10;99.90
35690;DHT22;26977;44.830;-0.674;2022-07-30T05:30:52;16.30;99.90
35690;DHT22;26977;44.830;-0.674;2022-07-30T05:33:19;16.40;99.90
35690;DHT22;26977;44.830;-0.674;2022-07-30T05:35:44;16.50;99.90
35690;DHT22;26977;44.830;-0.674;2022-07-30T05:38:10;16.50;99.90
35690;DHT22;26977;44.830;-0.674;2022-07-30T05:40:36;16.60;99.90
35690;DHT22;26977;44.830;-0.674;2022-07-30T05:43:01;16.70;99.90
35690;DHT22;26977;44.830;-0.674;2022-07-30T05:45:27;16.80;99.90
35690;DHT22;26977;44.830;-0.674;2022-07-30T05:47:53;16.80;99.90
35690;DHT22;26977;44.830;-0.674;2022-07-30T05:50:18;16.90;99.90
35690;DHT22;26977;44.830;-0.674;2022-07-30T05:52:44;16.90;99.90
35690;DHT22;26977;44.830;-0.674;2022-07-30T05:55:10;17.00;99.90
35690;DHT22;26977;44.830;-0.674;2022-07-30T05:57:35;17.10;99.90
35690;DHT22;26977;44.830;-0.674;2022-07-30T06:00:05;17.20;99.90
35690;DHT22;26977;44.830;-0.674;2022-07-30T06:02:32;17.30;99.90
35690;DHT22;26977;44.830;-0.674;2022-07-30T06:04:57;17.50;99.90
35690;DHT22;26977;44.830;-0.674;2022-07-30T06:07:23;17.60;99.90
35690;DHT22;26977;44.830;-0.674;2022-07-30T06:09:49;17.80;99.90
35690;DHT22;26977;44.830;-0.674;2022-07-30T06:12:15;17.80;99.90
35690;DHT22;26977;44.830;-0.674;2022-07-30T06:14:40;17.90;99.90
35690;DHT22;26977;44.830;-0.674;2022-07-30T06:17:06;18.00;99.90
35690;DHT22;26977;44.830;-0.674;2022-07-30T06:19:32;18.20;99.90
35690;DHT22;26977;44.830;-0.674;2022-07-30T06:21:57;18.30;99.90
35690;DHT22;26977;44.830;-0.674;2022-07-30T06:24:23;18.50;99.90
35690;DHT22;26977;44.830;-0.674;2022-07-30T06:26:49;18.70;99.90
35690;DHT22;26977;44.830;-0.674;2022-07-30T06:29:15;18.90;99.90
35690;DHT22;26977;44.830;-0.674;2022-07-30T06:31:40;19.00;99.90
35690;DHT22;26977;44.830;-0.674;2022-07-30T06:34:06;19.10;99.90
35690;DHT22;26977;44.830;-0.674;2022-07-30T06:36:32;19.20;99.90
35690;DHT22;26977;44.830;-0.674;2022-07-30T06:38:58;19.30;99.90
35690;DHT22;26977;44.830;-0.674;2022-07-30T06:41:23;19.50;99.90
35690;DHT22;26977;44.830;-0.674;2022-07-30T06:43:49;19.50;99.90
35690;DHT22;26977;44.830;-0.674;2022-07-30T06:46:15;19.50;99.90
35690;DHT22;26977;44.830;-0.674;2022-07-30T06:48:41;19.60;99.90
35690;DHT22;26977;44.830;-0.674;2022-07-30T06:51:07;19.70;99.90
35690;DHT22;26977;44.830;-0.674;2022-07-30T06:53:33;19.70;99.90
35690;DHT22;26977;44.830;-0.674;2022-07-30T06:55:59;19.90;99.90
35690;DHT22;26977;44.830;-0.674;2022-07-30T06:58:24;19.90;99.90
35690;DHT22;26977;44.830;-0.674;2022-07-30T07:00:50;20.00;99.90
35690;DHT22;26977;44.830;-0.674;2022-07-30T07:03:16;19.90;99.90
35690;DHT22;26977;44.830;-0.674;2022-07-30T07:05:42;19.80;99.90
35690;DHT22;26977;44.830;-0.674;2022-07-30T07:08:07;19.90;99.90
35690;DHT22;26977;44.830;-0.674;2022-07-30T07:10:33;20.00;99.90
35690;DHT22;26977;44.830;-0.674;2022-07-30T07:12:58;20.20;99.90
35690;DHT22;26977;44.830;-0.674;2022-07-30T07:15:25;20.30;99.90
35690;DHT22;26977;44.830;-0.674;2022-07-30T07:17:51;20.50;99.90
35690;DHT22;26977;44.830;-0.674;2022-07-30T07:20:17;20.60;99.90
35690;DHT22;26977;44.830;-0.674;2022-07-30T07:22:42;20.70;99.90
35690;DHT22;26977;44.830;-0.674;2022-07-30T07:25:08;20.90;99.90
35690;DHT22;26977;44.830;-0.674;2022-07-30T07:27:35;21.00;99.90
35690;DHT22;26977;44.830;-0.674;2022-07-30T07:30:01;21.00;99.90
35690;DHT22;26977;44.830;-0.674;2022-07-30T07:32:27;21.00;99.90
35690;DHT22;26977;44.830;-0.674;2022-07-30T07:34:52;21.10;99.90
35690;DHT22;26977;44.830;-0.674;2022-07-30T07:37:18;21.20;99.90
35690;DHT22;26977;44.830;-0.674;2022-07-30T07:39:43;21.40;99.90
35690;DHT22;26977;44.830;-0.674;2022-07-30T07:42:09;21.50;99.90
35690;DHT22;26977;44.830;-0.674;2022-07-30T07:44:35;21.60;99.90
35690;DHT22;26977;44.830;-0.674;2022-07-30T07:47:00;21.50;99.90
35690;DHT22;26977;44.830;-0.674;2022-07-30T07:49:26;21.60;99.90
35690;DHT22;26977;44.830;-0.674;2022-07-30T07:51:52;21.70;99.90
35690;DHT22;26977;44.830;-0.674;2022-07-30T07:54:17;21.70;99.90
35690;DHT22;26977;44.830;-0.674;2022-07-30T07:56:43;21.80;99.90
35690;DHT22;26977;44.830;-0.674;2022-07-30T07:59:09;22.30;99.90
35690;DHT22;26977;44.830;-0.674;2022-07-30T08:01:34;22.40;99.90
35690;DHT22;26977;44.830;-0.674;2022-07-30T08:04:00;22.70;99.90
35690;DHT22;26977;44.830;-0.674;2022-07-30T08:06:25;22.90;99.90
35690;DHT22;26977;44.830;-0.674;2022-07-30T08:08:51;23.00;99.90
35690;DHT22;26977;44.830;-0.674;2022-07-30T08:11:18;23.20;99.90
35690;DHT22;26977;44.830;-0.674;2022-07-30T08:13:43;23.30;99.90
35690;DHT22;26977;44.830;-0.674;2022-07-30T08:16:09;23.30;99.90
35690;DHT22;26977;44.830;-0.674;2022-07-30T08:18:35;23.30;99.90
35690;DHT22;26977;44.830;-0.674;2022-07-30T08:21:02;23.10;99.90
35690;DHT22;26977;44.830;-0.674;2022-07-30T08:23:27;22.90;99.90
35690;DHT22;26977;44.830;-0.674;2022-07-30T08:25:55;22.80;99.90
35690;DHT22;26977;44.830;-0.674;2022-07-30T08:28:20;22.80;99.90
35690;DHT22;26977;44.830;-0.674;2022-07-30T08:30:46;22.70;99.90
35690;DHT22;26977;44.830;-0.674;2022-07-30T08:33:12;23.10;99.90
35690;DHT22;26977;44.830;-0.674;2022-07-30T08:35:37;23.40;99.70
35690;DHT22;26977;44.830;-0.674;2022-07-30T08:38:03;23.60;99.10
35690;DHT22;26977;44.830;-0.674;2022-07-30T08:40:32;24.00;98.60
35690;DHT22;26977;44.830;-0.674;2022-07-30T08:43:00;24.40;97.10
35690;DHT22;26977;44.830;-0.674;2022-07-30T08:45:28;24.70;96.50
35690;DHT22;26977;44.830;-0.674;2022-07-30T08:47:56;24.80;95.90
35690;DHT22;26977;44.830;-0.674;2022-07-30T08:50:24;24.50;95.90
35690;DHT22;26977;44.830;-0.674;2022-07-30T08:52:50;24.90;95.80
35690;DHT22;26977;44.830;-0.674;2022-07-30T08:55:21;24.30;96.00
35690;DHT22;26977;44.830;-0.674;2022-07-30T08:57:47;24.00;96.00
35690;DHT22;26977;44.830;-0.674;2022-07-30T09:00:14;24.00;96.20
35690;DHT22;26977;44.830;-0.674;2022-07-30T09:02:41;24.10;96.10
35690;DHT22;26977;44.830;-0.674;2022-07-30T09:05:07;24.20;95.70
35690;DHT22;26977;44.830;-0.674;2022-07-30T09:07:34;24.40;96.10
35690;DHT22;26977;44.830;-0.674;2022-07-30T09:10:00;24.40;95.50
35690;DHT22;26977;44.830;-0.674;2022-07-30T09:12:43;24.30;96.00
35690;DHT22;26977;44.830;-0.674;2022-07-30T09:15:12;24.00;95.80
35690;DHT22;26977;44.830;-0.674;2022-07-30T09:17:57;24.30;95.70
35690;DHT22;26977;44.830;-0.674;2022-07-30T09:20:26;24.80;94.70
35690;DHT22;26977;44.830;-0.674;2022-07-30T09:22:54;25.00;93.90
35690;DHT22;26977;44.830;-0.674;2022-07-30T09:25:40;25.00;93.90
35690;DHT22;26977;44.830;-0.674;2022-07-30T09:28:08;25.10;93.50
35690;DHT22;26977;44.830;-0.674;2022-07-30T09:33:19;25.10;93.20
35690;DHT22;26977;44.830;-0.674;2022-07-30T09:35:55;25.20;93.30
35690;DHT22;26977;44.830;-0.674;2022-07-30T09:38:21;25.20;93.00
35690;DHT22;26977;44.830;-0.674;2022-07-30T09:40:52;25.70;92.30
35690;DHT22;26977;44.830;-0.674;2022-07-30T09:43:18;25.30;92.20
35690;DHT22;26977;44.830;-0.674;2022-07-30T09:45:52;25.40;91.70
35690;DHT22;26977;44.830;-0.674;2022-07-30T09:48:24;25.40;91.50
35690;DHT22;26977;44.830;-0.674;2022-07-30T09:50:51;25.70;91.60
35690;DHT22;26977;44.830;-0.674;2022-07-30T09:53:17;25.90;91.10
35690;DHT22;26977;44.830;-0.674;2022-07-30T09:55:43;25.80;90.80
35690;DHT22;26977;44.830;-0.674;2022-07-30T09:58:11;25.90;90.80
35690;DHT22;26977;44.830;-0.674;2022-07-30T10:00:38;25.70;91.10
35690;DHT22;26977;44.830;-0.674;2022-07-30T10:05:57;26.40;90.20
35690;DHT22;26977;44.830;-0.674;2022-07-30T10:08:44;26.10;90.30
35690;DHT22;26977;44.830;-0.674;2022-07-30T10:11:15;25.80;91.00
35690;DHT22;26977;44.830;-0.674;2022-07-30T10:13:42;26.00;90.40
35690;DHT22;26977;44.830;-0.674;2022-07-30T10:16:08;26.30;90.30
35690;DHT22;26977;44.830;-0.674;2022-07-30T10:18:35;26.50;88.90
35690;DHT22;26977;44.830;-0.674;2022-07-30T10:21:02;26.20;88.70
35690;DHT22;26977;44.830;-0.674;2022-07-30T10:23:29;26.00;89.70
35690;DHT22;26977;44.830;-0.674;2022-07-30T10:25:59;25.80;90.10
35690;DHT22;26977;44.830;-0.674;2022-07-30T10:28:26;25.90;90.20
35690;DHT22;26977;44.830;-0.674;2022-07-30T10:30:54;26.30;90.00
35690;DHT22;26977;44.830;-0.674;2022-07-30T10:33:28;26.90;89.00
35690;DHT22;26977;44.830;-0.674;2022-07-30T10:35:55;27.30;85.20
35690;DHT22;26977;44.830;-0.674;2022-07-30T10:38:26;27.40;84.10
35690;DHT22;26977;44.830;-0.674;2022-07-30T10:41:02;26.90;85.00
35690;DHT22;26977;44.830;-0.674;2022-07-30T10:49:19;27.60;83.90
35690;DHT22;26977;44.830;-0.674;2022-07-30T10:51:50;27.70;83.30
35690;DHT22;26977;44.830;-0.674;2022-07-30T11:02:18;26.30;86.80
35690;DHT22;26977;44.830;-0.674;2022-07-30T11:04:44;26.00;87.80
35690;DHT22;26977;44.830;-0.674;2022-07-30T11:10:00;25.90;88.10
35690;DHT22;26977;44.830;-0.674;2022-07-30T11:15:08;26.40;87.10
35690;DHT22;26977;44.830;-0.674;2022-07-30T11:18:00;26.60;87.00
35690;DHT22;26977;44.830;-0.674;2022-07-30T11:20:30;26.60;86.80
35690;DHT22;26977;44.830;-0.674;2022-07-30T11:25:44;26.70;87.70
35690;DHT22;26977;44.830;-0.674;2022-07-30T11:28:47;26.20;87.80
35690;DHT22;26977;44.830;-0.674;2022-07-30T11:42:45;27.30;85.00
35690;DHT22;26977;44.830;-0.674;2022-07-30T11:47:56;27.20;83.30
35690;DHT22;26977;44.830;-0.674;2022-07-30T11:50:30;27.20;83.10
35690;DHT22;26977;44.830;-0.674;2022-07-30T11:53:00;27.50;83.20
35690;DHT22;26977;44.830;-0.674;2022-07-30T11:57:56;28.20;81.30
35690;DHT22;26977;44.830;-0.674;2022-07-30T12:00:22;28.10;81.60
35690;DHT22;26977;44.830;-0.674;2022-07-30T12:02:49;27.90;81.10
35690;DHT22;26977;44.830;-0.674;2022-07-30T12:05:16;27.60;82.40
35690;DHT22;26977;44.830;-0.674;2022-07-30T12:07:47;27.60;82.80
35690;DHT22;26977;44.830;-0.674;2022-07-30T12:10:14;27.40;82.80
35690;DHT22;26977;44.830;-0.674;2022-07-30T12:12:41;27.40;83.00
35690;DHT22;26977;44.830;-0.674;2022-07-30T12:15:07;27.10;83.00
35690;DHT22;26977;44.830;-0.674;2022-07-30T12:17:42;27.60;82.80
35690;DHT22;26977;44.830;-0.674;2022-07-30T12:20:16;27.30;82.50
35690;DHT22;26977;44.830;-0.674;2022-07-30T12:22:43;27.00;83.10
35690;DHT22;26977;44.830;-0.674;2022-07-30T12:25:09;27.10;83.00
35690;DHT22;26977;44.830;-0.674;2022-07-30T12:27:35;27.70;82.70
35690;DHT22;26977;44.830;-0.674;2022-07-30T12:30:03;28.00;81.10
35690;DHT22;26977;44.830;-0.674;2022-07-30T12:32:28;27.90;80.90
35690;DHT22;26977;44.830;-0.674;2022-07-30T12:34:56;27.80;80.50
35690;DHT22;26977;44.830;-0.674;2022-07-30T12:37:23;28.10;80.60
35690;DHT22;26977;44.830;-0.674;2022-07-30T12:40:03;28.30;79.40
35690;DHT22;26977;44.830;-0.674;2022-07-30T12:42:29;28.30;80.20
35690;DHT22;26977;44.830;-0.674;2022-07-30T12:44:55;28.50;79.10
35690;DHT22;26977;44.830;-0.674;2022-07-30T12:47:29;29.00;78.40
35690;DHT22;26977;44.830;-0.674;2022-07-30T12:49:57;28.70;79.00
35690;DHT22;26977;44.830;-0.674;2022-07-30T12:52:27;29.10;78.70
35690;DHT22;26977;44.830;-0.674;2022-07-30T12:55:52;28.70;79.00
35690;DHT22;26977;44.830;-0.674;2022-07-30T12:58:11;29.00;78.80
35690;DHT22;26977;44.830;-0.674;2022-07-30T13:03:25;30.30;76.40
35690;DHT22;26977;44.830;-0.674;2022-07-30T13:05:53;30.90;74.90
35690;DHT22;26977;44.830;-0.674;2022-07-30T13:08:19;31.10;74.90
35690;DHT22;26977;44.830;-0.674;2022-07-30T13:10:59;30.80;74.20
35690;DHT22;26977;44.830;-0.674;2022-07-30T13:13:28;30.20;74.80
35690;DHT22;26977;44.830;-0.674;2022-07-30T13:16:03;29.60;75.90
35690;DHT22;26977;44.830;-0.674;2022-07-30T13:18:31;29.30;76.20
35690;DHT22;26977;44.830;-0.674;2022-07-30T13:20:57;28.70;77.90
35690;DHT22;26977;44.830;-0.674;2022-07-30T13:23:24;28.70;77.30
35690;DHT22;26977;44.830;-0.674;2022-07-30T13:25:50;28.90;76.90
35690;DHT22;26977;44.830;-0.674;2022-07-30T13:28:16;29.10;76.80
35690;DHT22;26977;44.830;-0.674;2022-07-30T13:30:42;28.70;77.40
35690;DHT22;26977;44.830;-0.674;2022-07-30T13:33:08;28.60;78.00
35690;DHT22;26977;44.830;-0.674;2022-07-30T13:35:34;28.70;78.30
35690;DHT22;26977;44.830;-0.674;2022-07-30T13:38:00;29.20;77.30
35690;DHT22;26977;44.830;-0.674;2022-07-30T13:40:27;29.50;76.10
35690;DHT22;26977;44.830;-0.674;2022-07-30T13:42:53;28.70;77.40
35690;DHT22;26977;44.830;-0.674;2022-07-30T13:45:18;29.30;76.40
35690;DHT22;26977;44.830;-0.674;2022-07-30T13:47:44;29.20;75.60
35690;DHT22;26977;44.830;-0.674;2022-07-30T13:50:09;29.20;76.30
35690;DHT22;26977;44.830;-0.674;2022-07-30T13:52:35;29.30;75.50
35690;DHT22;26977;44.830;-0.674;2022-07-30T13:55:01;29.30;75.40
35690;DHT22;26977;44.830;-0.674;2022-07-30T13:57:27;29.00;76.10
35690;DHT22;26977;44.830;-0.674;2022-07-30T13:59:52;29.40;75.50
35690;DHT22;26977;44.830;-0.674;2022-07-30T14:02:18;29.60;75.50
35690;DHT22;26977;44.830;-0.674;2022-07-30T14:04:43;29.90;74.70
35690;DHT22;26977;44.830;-0.674;2022-07-30T14:07:09;29.60;74.90
35690;DHT22;26977;44.830;-0.674;2022-07-30T14:09:35;28.40;76.90
35690;DHT22;26977;44.830;-0.674;2022-07-30T14:12:01;29.20;76.00
35690;DHT22;26977;44.830;-0.674;2022-07-30T14:14:26;30.10;74.40
35690;DHT22;26977;44.830;-0.674;2022-07-30T14:16:52;30.30;74.00
35690;DHT22;26977;44.830;-0.674;2022-07-30T14:19:18;30.60;73.00
35690;DHT22;26977;44.830;-0.674;2022-07-30T14:21:44;29.70;74.10
35690;DHT22;26977;44.830;-0.674;2022-07-30T14:24:10;29.30;75.50
35690;DHT22;26977;44.830;-0.674;2022-07-30T14:26:37;29.90;74.70
35690;DHT22;26977;44.830;-0.674;2022-07-30T14:29:04;31.50;72.80
35690;DHT22;26977;44.830;-0.674;2022-07-30T14:31:30;32.50;70.50
35690;DHT22;26977;44.830;-0.674;2022-07-30T14:33:55;31.80;70.80
35690;DHT22;26977;44.830;-0.674;2022-07-30T14:36:22;31.10;71.00
35690;DHT22;26977;44.830;-0.674;2022-07-30T14:38:47;31.80;70.80
35690;DHT22;26977;44.830;-0.674;2022-07-30T14:41:13;32.70;69.20
35690;DHT22;26977;44.830;-0.674;2022-07-30T14:43:39;33.40;68.10
35690;DHT22;26977;44.830;-0.674;2022-07-30T14:46:04;33.70;67.00
35690;DHT22;26977;44.830;-0.674;2022-07-30T14:48:30;32.00;69.00
35690;DHT22;26977;44.830;-0.674;2022-07-30T14:50:55;32.50;69.50
35690;DHT22;26977;44.830;-0.674;2022-07-30T14:53:21;34.00;67.60
35690;DHT22;26977;44.830;-0.674;2022-07-30T14:55:47;33.80;66.90
35690;DHT22;26977;44.830;-0.674;2022-07-30T14:58:12;33.40;67.20
35690;DHT22;26977;44.830;-0.674;2022-07-30T15:00:38;33.50;66.70
35690;DHT22;26977;44.830;-0.674;2022-07-30T15:03:04;33.70;66.30
35690;DHT22;26977;44.830;-0.674;2022-07-30T15:05:29;34.80;64.60
35690;DHT22;26977;44.830;-0.674;2022-07-30T15:07:55;35.30;63.70
35690;DHT22;26977;44.830;-0.674;2022-07-30T15:10:21;34.70;63.70
35690;DHT22;26977;44.830;-0.674;2022-07-30T15:12:46;34.90;64.40
35690;DHT22;26977;44.830;-0.674;2022-07-30T15:15:12;36.50;62.80
35690;DHT22;26977;44.830;-0.674;2022-07-30T15:17:38;35.90;61.90
35690;DHT22;26977;44.830;-0.674;2022-07-30T15:20:05;34.00;64.20
35690;DHT22;26977;44.830;-0.674;2022-07-30T15:22:33;32.30;66.90
35690;DHT22;26977;44.830;-0.674;2022-07-30T15:25:00;31.60;67.80
35690;DHT22;26977;44.830;-0.674;2022-07-30T15:27:25;30.70;69.70
35690;DHT22;26977;44.830;-0.674;2022-07-30T15:29:51;30.10;71.10
35690;DHT22;26977;44.830;-0.674;2022-07-30T15:32:17;31.10;69.70
35690;DHT22;26977;44.830;-0.674;2022-07-30T15:34:43;31.40;69.10
35690;DHT22;26977;44.830;-0.674;2022-07-30T15:37:08;32.50;67.80
35690;DHT22;26977;44.830;-0.674;2022-07-30T15:39:34;34.30;65.50
35690;DHT22;26977;44.830;-0.674;2022-07-30T15:42:01;34.00;64.10
35690;DHT22;26977;44.830;-0.674;2022-07-30T15:44:28;34.80;63.60
35690;DHT22;26977;44.830;-0.674;2022-07-30T15:46:54;34.80;63.60
35690;DHT22;26977;44.830;-0.674;2022-07-30T15:49:19;34.90;62.90
35690;DHT22;26977;44.830;-0.674;2022-07-30T15:51:45;33.90;64.30
35690;DHT22;26977;44.830;-0.674;2022-07-30T15:54:18;34.30;63.40
35690;DHT22;26977;44.830;-0.674;2022-07-30T15:56:44;33.50;64.30
35690;DHT22;26977;44.830;-0.674;2022-07-30T15:59:13;34.40;63.50
35690;DHT22;26977;44.830;-0.674;2022-07-30T16:01:39;34.90;62.40
35690;DHT22;26977;44.830;-0.674;2022-07-30T16:04:05;33.90;63.70
35690;DHT22;26977;44.830;-0.674;2022-07-30T16:06:31;33.60;63.90
35690;DHT22;26977;44.830;-0.674;2022-07-30T16:08:58;33.30;64.50
35690;DHT22;26977;44.830;-0.674;2022-07-30T16:11:24;32.70;65.50